Time;durP1;ratioP1;P1;durP2;ratioP2;P2;SDS_P1;SDS_P2;PMS_P1;PMS_P2;Temp;Humidity;BMP_temperature;BMP_pressure;BME280_temperature;BME280_humidity;BME280_pressure;Samples;Min_cycle;Max_cycle;Signal;HPM_P1;HPM_P2
2022/05/31 00:00:44;;;;;;;5.82;5.32;;;;;;;;;;2074711;28;20622;-55
2022/05/31 00:01:45;;;;;;;5.95;5.47;;;;;;;;;;2074261;28;20193;-57
2022/05/31 00:02:46;;;;;;;6.25;5.75;;;;;;;;;;2074665;28;20161;-53
2022/05/31 00:03:46;;;;;;;6.95;6.43;;;;;;;;;;2074515;28;20180;-56
2022/05/31 00:04:46;;;;;;;6.13;5.72;;;;;;;;;;2074106;28;20291;-57
2022/05/31 00:05:46;;;;;;;6.90;6.20;;;;;;;;;;2074765;28;20223;-54
2022/05/31 00:06:47;;;;;;;7.13;6.53;;;;;;;;;;2087973;23;20648;-54
2022/05/31 00:07:47;;;;;;;6.93;6.38;;;;;;;;;;2075938;28;20203;-51
2022/05/31 00:08:47;;;;;;;7.03;6.43;;;;;;;;;;2082841;28;20186;-54
2022/05/31 00:09:47;;;;;;;6.95;6.35;;;;;;;;;;2084096;28;20183;-52
2022/05/31 00:10:48;;;;;;;7.05;6.35;;;;;;;;;;2078821;28;20176;-50
2022/05/31 00:11:48;;;;;;;8.15;6.03;;;;;;;;;;2081887;28;20662;-56
2022/05/31 00:12:49;;;;;;;6.45;5.82;;;;;;;;;;2082307;28;20681;-51
2022/05/31 00:13:49;;;;;;;7.32;6.72;;;;;;;;;;2083931;28;20717;-57
2022/05/31 00:14:49;;;;;;;6.60;6.10;;;;;;;;;;2087954;28;20654;-52
2022/05/31 00:15:50;;;;;;;6.38;5.80;;;;;;;;;;2084282;28;20672;-53
2022/05/31 00:16:50;;;;;;;6.38;5.72;;;;;;;;;;2083260;28;20509;-54
2022/05/31 00:17:51;;;;;;;6.45;5.85;;;;;;;;;;2082416;28;20225;-50
2022/05/31 00:18:52;;;;;;;6.60;5.82;;;;;;;;;;2082736;28;20184;-51
2022/05/31 00:19:52;;;;;;;5.82;5.43;;;;;;;;;;2082732;28;20174;-55
2022/05/31 00:20:52;;;;;;;6.20;5.70;;;;;;;;;;2082428;28;20172;-53
2022/05/31 00:21:56;;;;;;;6.95;6.43;;;;;;;;;;2082079;28;20571;-52
2022/05/31 00:22:56;;;;;;;6.70;5.82;;;;;;;;;;2082639;28;20196;-53
2022/05/31 00:23:56;;;;;;;6.28;5.80;;;;;;;;;;2080473;28;20667;-55
2022/05/31 00:24:56;;;;;;;5.78;5.40;;;;;;;;;;2080749;28;20191;-53
2022/05/31 00:25:57;;;;;;;6.28;5.80;;;;;;;;;;2082161;28;20248;-55
2022/05/31 00:26:57;;;;;;;6.70;6.10;;;;;;;;;;2082649;28;20196;-55
2022/05/31 00:27:57;;;;;;;5.72;5.22;;;;;;;;;;2081686;28;20172;-56
2022/05/31 00:28:58;;;;;;;6.90;6.07;;;;;;;;;;2082046;28;20171;-54
2022/05/31 00:29:58;;;;;;;7.40;6.18;;;;;;;;;;2082305;28;20184;-56
2022/05/31 00:30:58;;;;;;;7.60;6.30;;;;;;;;;;2082454;28;20175;-54
2022/05/31 00:32:00;;;;;;;6.03;5.47;;;;;;;;;;2081328;28;20175;-52
2022/05/31 00:33:00;;;;;;;6.07;5.57;;;;;;;;;;2081224;28;20172;-49
2022/05/31 00:34:01;;;;;;;6.20;5.80;;;;;;;;;;2080373;28;20580;-51
2022/05/31 00:35:06;;;;;;;5.60;5.18;;;;;;;;;;2081173;28;20609;-49
2022/05/31 00:36:06;;;;;;;7.90;5.68;;;;;;;;;;2089061;28;20171;-54
2022/05/31 00:37:07;;;;;;;5.80;5.40;;;;;;;;;;2082027;28;20267;-53
2022/05/31 00:38:08;;;;;;;5.90;5.40;;;;;;;;;;2081499;28;20547;-53
2022/05/31 00:39:08;;;;;;;6.03;5.57;;;;;;;;;;2081195;28;20172;-52
2022/05/31 00:40:09;;;;;;;6.57;5.50;;;;;;;;;;2081719;28;20210;-51
2022/05/31 00:41:25;;;;;;;5.85;5.45;;;;;;;;;;2080475;28;20180;-51
2022/05/31 00:42:26;;;;;;;8.57;5.80;;;;;;;;;;2081219;28;20186;-57
2022/05/31 00:43:26;;;;;;;5.82;5.32;;;;;;;;;;2081129;28;20702;-49
2022/05/31 00:44:28;;;;;;;5.93;5.10;;;;;;;;;;2087501;28;20192;-50
2022/05/31 00:45:48;;;;;;;7.03;6.35;;;;;;;;;;2073901;28;20169;-55
2022/05/31 00:46:50;;;;;;;6.85;6.15;;;;;;;;;;2075391;28;20192;-51
2022/05/31 00:47:51;;;;;;;5.80;5.30;;;;;;;;;;2077518;28;20558;-53
2022/05/31 00:48:57;;;;;;;6.40;5.95;;;;;;;;;;2073024;28;20304;-49
2022/05/31 00:50:06;;;;;;;6.80;6.20;;;;;;;;;;2081236;28;20259;-49
2022/05/31 00:51:08;;;;;;;6.18;5.57;;;;;;;;;;2081076;28;20635;-51
2022/05/31 00:52:11;;;;;;;5.72;5.22;;;;;;;;;;2073014;28;20177;-50
2022/05/31 00:53:19;;;;;;;6.10;5.60;;;;;;;;;;2081469;28;20242;-51
2022/05/31 00:54:21;;;;;;;6.57;5.63;;;;;;;;;;2072366;28;20165;-51
2022/05/31 00:55:22;;;;;;;6.60;6.10;;;;;;;;;;2073961;28;20176;-54
2022/05/31 00:56:24;;;;;;;6.30;5.78;;;;;;;;;;2082096;28;20597;-51
2022/05/31 00:57:24;;;;;;;6.97;6.28;;;;;;;;;;2081116;28;20200;-55
2022/05/31 00:58:27;;;;;;;5.72;5.18;;;;;;;;;;2073396;28;20184;-54
2022/05/31 00:59:33;;;;;;;7.05;5.38;;;;;;;;;;2081253;28;20614;-52
2022/05/31 01:00:38;;;;;;;6.40;5.63;;;;;;;;;;2081882;28;20222;-50
2022/05/31 01:01:40;;;;;;;5.90;5.40;;;;;;;;;;2081573;28;20600;-53
2022/05/31 01:02:41;;;;;;;6.00;5.50;;;;;;;;;;2081846;28;20180;-55
2022/05/31 01:03:43;;;;;;;8.07;5.57;;;;;;;;;;2081511;28;20192;-50
2022/05/31 01:04:52;;;;;;;6.03;5.60;;;;;;;;;;2071831;28;20175;-51
2022/05/31 01:05:53;;;;;;;6.53;5.95;;;;;;;;;;2077897;28;20700;-53
2022/05/31 01:06:55;;;;;;;7.15;5.82;;;;;;;;;;2081333;28;20164;-54
2022/05/31 01:07:56;;;;;;;6.65;6.03;;;;;;;;;;2073641;28;20784;-51
2022/05/31 01:08:57;;;;;;;6.45;5.90;;;;;;;;;;2081814;28;20160;-57
2022/05/31 01:10:08;;;;;;;5.65;5.22;;;;;;;;;;2082289;28;20203;-57
2022/05/31 01:11:22;;;;;;;6.55;5.95;;;;;;;;;;2081943;28;20176;-52
2022/05/31 01:12:42;;;;;;;6.20;5.68;;;;;;;;;;2081836;28;20172;-54
2022/05/31 01:14:01;;;;;;;6.60;6.05;;;;;;;;;;2081243;28;20164;-54
2022/05/31 01:15:20;;;;;;;6.18;5.68;;;;;;;;;;2081316;28;20168;-58
2022/05/31 01:16:56;;;;;;;6.60;5.90;;;;;;;;;;2074525;28;20165;-50
2022/05/31 01:18:15;;;;;;;6.10;5.53;;;;;;;;;;2081688;28;20184;-51
2022/05/31 01:19:56;;;;;;;8.65;5.32;;;;;;;;;;2077580;28;20192;-54
2022/05/31 01:21:00;;;;;;;6.60;6.07;;;;;;;;;;2081127;28;20175;-51
2022/05/31 01:22:12;;;;;;;6.10;5.70;;;;;;;;;;2075328;28;20681;-54
2022/05/31 01:23:17;;;;;;;6.47;5.88;;;;;;;;;;2065233;28;20268;-55
2022/05/31 01:24:18;;;;;;;7.07;5.55;;;;;;;;;;2071962;28;20181;-49
2022/05/31 01:25:22;;;;;;;5.53;5.13;;;;;;;;;;2073518;28;20303;-53
2022/05/31 01:26:42;;;;;;;8.05;6.32;;;;;;;;;;2073403;28;20169;-52
2022/05/31 01:28:01;;;;;;;5.32;4.90;;;;;;;;;;2063601;28;20657;-51
2022/05/31 01:29:09;;;;;;;5.50;5.00;;;;;;;;;;2075368;28;20185;-50
2022/05/31 01:30:10;;;;;;;6.30;5.70;;;;;;;;;;2082032;28;20173;-53
2022/05/31 01:31:31;;;;;;;6.00;5.50;;;;;;;;;;2081008;28;20590;-54
2022/05/31 01:32:33;;;;;;;6.13;5.55;;;;;;;;;;2067789;28;20255;-55
2022/05/31 01:33:40;;;;;;;6.28;5.68;;;;;;;;;;2075813;28;20276;-54
2022/05/31 01:34:43;;;;;;;8.43;6.00;;;;;;;;;;2082439;28;20207;-55
2022/05/31 01:35:43;;;;;;;6.45;5.88;;;;;;;;;;2070009;28;20199;-55
2022/05/31 01:36:52;;;;;;;7.00;6.38;;;;;;;;;;2066404;28;20170;-54
2022/05/31 01:37:55;;;;;;;7.32;6.40;;;;;;;;;;2072874;28;20255;-54
2022/05/31 01:39:07;;;;;;;6.57;6.00;;;;;;;;;;2074477;28;20205;-55
2022/05/31 01:40:10;;;;;;;5.82;5.32;;;;;;;;;;2076961;28;20197;-54
2022/05/31 01:41:19;;;;;;;6.72;6.13;;;;;;;;;;2091653;28;20168;-56
2022/05/31 01:42:22;;;;;;;6.90;6.30;;;;;;;;;;2082406;28;20577;-55
2022/05/31 01:43:23;;;;;;;6.40;5.80;;;;;;;;;;2075408;28;20169;-59
2022/05/31 01:44:26;;;;;;;7.03;6.43;;;;;;;;;;2083152;28;20172;-54
2022/05/31 01:45:31;;;;;;;8.75;7.72;;;;;;;;;;2083941;28;20244;-55
2022/05/31 01:46:33;;;;;;;8.13;7.33;;;;;;;;;;2082784;28;20168;-56
2022/05/31 01:47:34;;;;;;;8.05;7.05;;;;;;;;;;2074672;28;20185;-55
2022/05/31 01:48:36;;;;;;;7.50;6.80;;;;;;;;;;2082990;28;20256;-56
2022/05/31 01:49:39;;;;;;;8.30;7.63;;;;;;;;;;2088459;28;20167;-52
2022/05/31 01:50:39;;;;;;;8.90;8.07;;;;;;;;;;2081377;28;20263;-52
2022/05/31 01:51:40;;;;;;;9.17;8.40;;;;;;;;;;2073202;28;20176;-49
2022/05/31 01:52:41;;;;;;;8.25;7.55;;;;;;;;;;2082676;28;20212;-49
2022/05/31 01:53:42;;;;;;;9.20;8.40;;;;;;;;;;2082490;28;20176;-51
2022/05/31 01:54:43;;;;;;;9.35;8.48;;;;;;;;;;2082263;28;20184;-51
2022/05/31 01:55:45;;;;;;;10.38;9.23;;;;;;;;;;2082825;28;20594;-53
2022/05/31 01:56:47;;;;;;;10.85;9.85;;;;;;;;;;2074738;28;20704;-52
2022/05/31 01:57:49;;;;;;;10.77;9.77;;;;;;;;;;2066962;28;20762;-50
2022/05/31 01:58:52;;;;;;;11.10;8.98;;;;;;;;;;2082959;28;20310;-53
2022/05/31 01:59:55;;;;;;;9.88;8.98;;;;;;;;;;2083687;28;20184;-55
2022/05/31 02:00:55;;;;;;;10.57;9.57;;;;;;;;;;2076853;28;20630;-57
2022/05/31 02:01:56;;;;;;;9.45;8.48;;;;;;;;;;2084335;28;20204;-50
2022/05/31 02:02:58;;;;;;;10.05;9.02;;;;;;;;;;2085512;28;20230;-61
2022/05/31 02:04:00;;;;;;;9.73;8.70;;;;;;;;;;2085753;28;20178;-50
2022/05/31 02:05:00;;;;;;;9.80;8.57;;;;;;;;;;2085966;28;20164;-55
2022/05/31 02:06:01;;;;;;;11.05;8.32;;;;;;;;;;2085367;28;20233;-54
2022/05/31 02:07:13;;;;;;;8.40;7.60;;;;;;;;;;2082543;28;20192;-51
2022/05/31 02:08:18;;;;;;;8.93;8.27;;;;;;;;;;2075983;28;20219;-55
2022/05/31 02:09:19;;;;;;;9.73;8.65;;;;;;;;;;2074736;28;20173;-52
2022/05/31 02:10:21;;;;;;;9.23;8.17;;;;;;;;;;2074563;28;20685;-51
2022/05/31 02:11:23;;;;;;;9.70;8.52;;;;;;;;;;2074566;28;20660;-53
2022/05/31 02:12:28;;;;;;;8.98;7.78;;;;;;;;;;2082778;28;20377;-57
2022/05/31 02:13:47;;;;;;;9.20;7.18;;;;;;;;;;2088584;28;20156;-52
2022/05/31 02:14:53;;;;;;;7.80;7.10;;;;;;;;;;2082019;28;20155;-50
2022/05/31 02:15:54;;;;;;;7.97;7.40;;;;;;;;;;2074310;28;20237;-54
2022/05/31 02:17:29;;;;;;;7.80;7.20;;;;;;;;;;2074608;28;20209;-52
2022/05/31 02:20:31;;;;;;;6.97;6.40;;;;;;;;;;2082521;28;20238;-52
2022/05/31 02:21:38;;;;;;;7.55;6.85;;;;;;;;;;2085544;28;20196;-52
2022/05/31 02:22:38;;;;;;;7.93;7.20;;;;;;;;;;2084669;28;20175;-55
2022/05/31 02:23:39;;;;;;;8.30;7.67;;;;;;;;;;2086036;28;20168;-56
2022/05/31 02:24:39;;;;;;;7.73;7.03;;;;;;;;;;2083884;28;20249;-56
2022/05/31 02:25:40;;;;;;;8.13;7.30;;;;;;;;;;2084629;28;20247;-55
2022/05/31 02:26:41;;;;;;;8.68;7.78;;;;;;;;;;2084311;28;20567;-51
2022/05/31 02:27:42;;;;;;;7.78;7.03;;;;;;;;;;2084467;28;20190;-54
2022/05/31 02:28:42;;;;;;;8.23;7.43;;;;;;;;;;2092869;28;20171;-56
2022/05/31 02:29:43;;;;;;;7.65;7.05;;;;;;;;;;2084410;28;20257;-54
2022/05/31 02:30:43;;;;;;;8.03;7.33;;;;;;;;;;2076347;28;20181;-57
2022/05/31 02:31:44;;;;;;;8.20;7.57;;;;;;;;;;2084133;28;20183;-58
2022/05/31 02:32:45;;;;;;;7.25;6.55;;;;;;;;;;2075833;28;20608;-54
2022/05/31 02:33:45;;;;;;;7.50;6.80;;;;;;;;;;2068245;28;20165;-56
2022/05/31 02:34:46;;;;;;;7.13;6.53;;;;;;;;;;2084339;28;20180;-58
2022/05/31 02:35:49;;;;;;;7.60;6.93;;;;;;;;;;2085252;28;20610;-55
2022/05/31 02:36:51;;;;;;;7.90;7.10;;;;;;;;;;2085058;28;20249;-56
2022/05/31 02:37:53;;;;;;;7.93;7.17;;;;;;;;;;2086603;28;20215;-55
2022/05/31 02:38:53;;;;;;;7.63;6.90;;;;;;;;;;2080277;28;20176;-53
2022/05/31 02:39:59;;;;;;;7.07;6.47;;;;;;;;;;2084067;28;20199;-58
2022/05/31 02:41:01;;;;;;;8.07;7.15;;;;;;;;;;2084647;28;20618;-55
2022/05/31 02:42:02;;;;;;;8.27;7.43;;;;;;;;;;2076744;28;20220;-53
2022/05/31 02:43:02;;;;;;;6.97;6.38;;;;;;;;;;2068294;28;20200;-58
2022/05/31 02:44:03;;;;;;;8.15;7.35;;;;;;;;;;2067208;28;20188;-52
2022/05/31 02:45:05;;;;;;;7.85;7.15;;;;;;;;;;2075581;28;20203;-56
2022/05/31 02:46:05;;;;;;;8.15;7.40;;;;;;;;;;2075354;28;20172;-56
2022/05/31 02:47:07;;;;;;;7.87;7.17;;;;;;;;;;2067685;28;20201;-58
2022/05/31 02:48:08;;;;;;;8.13;7.45;;;;;;;;;;2067706;28;20170;-54
2022/05/31 02:49:08;;;;;;;8.18;7.50;;;;;;;;;;2067360;28;20635;-54
2022/05/31 02:50:09;;;;;;;8.50;7.70;;;;;;;;;;2080839;28;20172;-56
2022/05/31 02:51:09;;;;;;;8.85;7.35;;;;;;;;;;2083484;28;20179;-58
2022/05/31 02:52:09;;;;;;;8.35;7.47;;;;;;;;;;2075617;28;20173;-56
2022/05/31 02:53:10;;;;;;;8.30;7.53;;;;;;;;;;2075612;28;20195;-58
2022/05/31 02:54:12;;;;;;;9.93;7.30;;;;;;;;;;2082570;28;20211;-54
2022/05/31 02:55:30;;;;;;;8.30;7.10;;;;;;;;;;2084185;28;20239;-54
2022/05/31 02:56:54;;;;;;;8.43;7.70;;;;;;;;;;2067598;28;20257;-57
2022/05/31 02:58:20;;;;;;;8.70;7.55;;;;;;;;;;2061529;28;20202;-55
2022/05/31 02:59:44;;;;;;;9.73;7.30;;;;;;;;;;2050591;29;20295;-52
2022/05/31 03:01:23;;;;;;;8.23;7.53;;;;;;;;;;2084353;28;20207;-53
2022/05/31 03:02:42;;;;;;;7.80;7.20;;;;;;;;;;2084698;28;20173;-55
2022/05/31 03:04:01;;;;;;;7.15;6.45;;;;;;;;;;2082611;28;20156;-54
2022/05/31 03:05:22;;;;;;;8.13;7.43;;;;;;;;;;2061060;28;20190;-56
2022/05/31 03:06:50;;;;;;;8.57;7.35;;;;;;;;;;2083232;28;20176;-51
2022/05/31 03:07:53;;;;;;;7.57;6.60;;;;;;;;;;2075992;28;20173;-56
2022/05/31 03:08:58;;;;;;;7.77;7.07;;;;;;;;;;2075197;28;20675;-54
2022/05/31 03:10:06;;;;;;;9.70;6.95;;;;;;;;;;2083451;28;20160;-52
2022/05/31 03:11:08;;;;;;;7.75;7.13;;;;;;;;;;2084375;28;20255;-56
2022/05/31 03:12:11;;;;;;;8.03;7.33;;;;;;;;;;2082734;28;20175;-56
2022/05/31 03:13:12;;;;;;;7.25;6.75;;;;;;;;;;2082405;28;20199;-51
2022/05/31 03:14:17;;;;;;;8.18;7.38;;;;;;;;;;2081706;28;20306;-57
2022/05/31 03:15:19;;;;;;;7.38;6.78;;;;;;;;;;2081797;28;20180;-49
2022/05/31 03:16:20;;;;;;;7.95;7.25;;;;;;;;;;2075433;28;20196;-56
2022/05/31 03:17:30;;;;;;;8.20;7.50;;;;;;;;;;2067637;28;20201;-55
2022/05/31 03:18:35;;;;;;;7.40;6.70;;;;;;;;;;2075326;28;20193;-59
2022/05/31 03:19:39;;;;;;;9.38;8.23;;;;;;;;;;2067915;28;20181;-52
2022/05/31 03:20:44;;;;;;;8.53;7.83;;;;;;;;;;2067521;28;20629;-58
2022/05/31 03:21:47;;;;;;;8.30;7.50;;;;;;;;;;2075423;28;20297;-52
2022/05/31 03:22:49;;;;;;;9.32;8.43;;;;;;;;;;2075369;28;20192;-54
2022/05/31 03:23:52;;;;;;;9.30;8.40;;;;;;;;;;2075785;28;20233;-56
2022/05/31 03:24:57;;;;;;;8.67;7.87;;;;;;;;;;2074564;28;20181;-57
2022/05/31 03:25:58;;;;;;;8.70;7.90;;;;;;;;;;2075762;28;20176;-55
2022/05/31 03:27:00;;;;;;;8.50;7.70;;;;;;;;;;2075151;28;20556;-49
2022/05/31 03:28:02;;;;;;;8.10;7.40;;;;;;;;;;2075379;28;20260;-54
2022/05/31 03:29:03;;;;;;;9.20;8.30;;;;;;;;;;2074222;28;20173;-50
2022/05/31 03:30:04;;;;;;;8.53;7.63;;;;;;;;;;2074644;28;20769;-55
2022/05/31 03:31:05;;;;;;;8.63;7.70;;;;;;;;;;2066898;28;20201;-54
2022/05/31 03:32:05;;;;;;;9.63;8.75;;;;;;;;;;2066839;28;20294;-60
2022/05/31 03:33:07;;;;;;;8.90;8.00;;;;;;;;;;2076316;28;20176;-58
2022/05/31 03:34:07;;;;;;;8.68;7.50;;;;;;;;;;2075037;28;20704;-56
2022/05/31 03:35:08;;;;;;;8.07;7.32;;;;;;;;;;2076291;28;20311;-54
2022/05/31 03:36:11;;;;;;;11.73;7.57;;;;;;;;;;2067835;28;20169;-54
2022/05/31 03:37:19;;;;;;;7.68;6.88;;;;;;;;;;2069066;28;20284;-55
2022/05/31 03:38:19;;;;;;;8.60;8.00;;;;;;;;;;2076263;28;20186;-54
2022/05/31 03:39:20;;;;;;;8.00;7.40;;;;;;;;;;2082142;28;20172;-53
2022/05/31 03:41:41;;;;;;;8.00;7.30;;;;;;;;;;2075374;28;20196;-56
2022/05/31 03:42:41;;;;;;;7.90;7.20;;;;;;;;;;2076000;28;20181;-55
2022/05/31 03:43:44;;;;;;;7.30;6.77;;;;;;;;;;2084200;28;20325;-55
2022/05/31 03:44:56;;;;;;;8.57;7.75;;;;;;;;;;2083083;28;20194;-55
2022/05/31 03:46:23;;;;;;;8.05;7.28;;;;;;;;;;2076281;28;20189;-57
2022/05/31 03:47:42;;;;;;;8.10;7.50;;;;;;;;;;2076400;28;20169;-57
2022/05/31 03:49:15;;;;;;;8.68;7.88;;;;;;;;;;2057433;28;20244;-57
2022/05/31 03:50:23;;;;;;;8.73;7.83;;;;;;;;;;2080184;28;20239;-54
2022/05/31 03:51:23;;;;;;;9.95;8.88;;;;;;;;;;2084355;28;20204;-56
2022/05/31 03:52:26;;;;;;;10.38;9.35;;;;;;;;;;2083647;28;20524;-56
2022/05/31 03:53:27;;;;;;;9.38;8.55;;;;;;;;;;2076584;28;20251;-55
2022/05/31 03:54:27;;;;;;;10.70;8.80;;;;;;;;;;2074962;28;20744;-55
2022/05/31 03:55:48;;;;;;;9.43;8.63;;;;;;;;;;2073092;28;20184;-55
2022/05/31 03:56:49;;;;;;;9.43;8.63;;;;;;;;;;2075373;28;20335;-56
2022/05/31 03:57:50;;;;;;;9.10;8.30;;;;;;;;;;2066842;28;20256;-56
2022/05/31 03:59:13;;;;;;;9.77;8.98;;;;;;;;;;2069073;28;20568;-53
2022/05/31 04:00:15;;;;;;;9.93;8.93;;;;;;;;;;2089164;28;20188;-49
2022/05/31 04:01:30;;;;;;;9.40;8.50;;;;;;;;;;2082681;28;20346;-53
2022/05/31 04:02:31;;;;;;;9.07;8.38;;;;;;;;;;2082578;28;20263;-52
2022/05/31 04:03:32;;;;;;;9.05;8.23;;;;;;;;;;2082624;28;20168;-57
2022/05/31 04:04:32;;;;;;;8.70;7.93;;;;;;;;;;2073458;28;20172;-50
2022/05/31 04:05:33;;;;;;;8.20;7.38;;;;;;;;;;2074090;28;20177;-51
2022/05/31 04:06:35;;;;;;;8.82;7.93;;;;;;;;;;2073836;28;20226;-54
2022/05/31 04:07:36;;;;;;;8.30;7.57;;;;;;;;;;2074006;28;20697;-53
2022/05/31 04:08:36;;;;;;;7.97;7.35;;;;;;;;;;2073671;28;20199;-53
2022/05/31 04:09:37;;;;;;;9.05;8.15;;;;;;;;;;2074275;28;20173;-53
2022/05/31 04:10:43;;;;;;;9.50;7.75;;;;;;;;;;2074471;28;20592;-54
2022/05/31 04:11:44;;;;;;;8.40;6.95;;;;;;;;;;2081633;28;20173;-56
2022/05/31 04:12:53;;;;;;;8.30;7.53;;;;;;;;;;2074697;28;20188;-53
2022/05/31 04:14:22;;;;;;;9.00;7.73;;;;;;;;;;2067889;28;20237;-51
2022/05/31 04:15:34;;;;;;;7.68;7.05;;;;;;;;;;2065158;28;20170;-51
2022/05/31 04:16:35;;;;;;;9.40;8.33;;;;;;;;;;2073353;28;20631;-52
2022/05/31 04:17:38;;;;;;;10.00;8.20;;;;;;;;;;2081407;28;20178;-50
2022/05/31 04:18:38;;;;;;;8.75;7.95;;;;;;;;;;2089973;28;20171;-51
2022/05/31 04:19:39;;;;;;;9.02;8.25;;;;;;;;;;2081995;28;20599;-51
2022/05/31 04:20:41;;;;;;;8.55;7.80;;;;;;;;;;2081923;28;20199;-52
2022/05/31 04:21:42;;;;;;;9.05;8.10;;;;;;;;;;2081216;28;20204;-53
2022/05/31 04:22:42;;;;;;;9.00;8.10;;;;;;;;;;2073392;28;20192;-52
2022/05/31 04:24:08;;;;;;;10.13;8.07;;;;;;;;;;2074862;28;20172;-51
2022/05/31 04:25:11;;;;;;;9.07;8.23;;;;;;;;;;2081935;28;20172;-54
2022/05/31 04:26:41;;;;;;;8.93;8.05;;;;;;;;;;2051424;28;20733;-54
2022/05/31 04:28:00;;;;;;;9.07;8.23;;;;;;;;;;2082550;28;20177;-50
2022/05/31 04:29:19;;;;;;;10.52;9.52;;;;;;;;;;2082544;28;20235;-52
2022/05/31 04:30:55;;;;;;;11.00;8.52;;;;;;;;;;2065208;28;20197;-50
2022/05/31 04:32:14;;;;;;;8.43;7.72;;;;;;;;;;2065120;28;20177;-52
2022/05/31 04:33:27;;;;;;;9.63;8.60;;;;;;;;;;2071498;28;20260;-51
2022/05/31 04:34:27;;;;;;;8.20;7.43;;;;;;;;;;2080742;28;20176;-54
2022/05/31 04:35:27;;;;;;;9.00;7.88;;;;;;;;;;2081544;28;20172;-55
2022/05/31 04:36:28;;;;;;;8.05;7.25;;;;;;;;;;2081905;28;20203;-53
2022/05/31 04:37:28;;;;;;;8.32;7.63;;;;;;;;;;2081450;28;20203;-54
2022/05/31 04:38:45;;;;;;;8.27;7.47;;;;;;;;;;2083645;28;20172;-55
2022/05/31 04:39:52;;;;;;;8.32;7.47;;;;;;;;;;2080454;28;20248;-57
2022/05/31 04:41:02;;;;;;;7.40;6.75;;;;;;;;;;2080975;28;20199;-51
2022/05/31 04:42:22;;;;;;;8.50;7.35;;;;;;;;;;2081505;28;20558;-51
2022/05/31 04:43:22;;;;;;;8.27;7.47;;;;;;;;;;2081533;28;20211;-54
2022/05/31 04:44:34;;;;;;;7.88;7.15;;;;;;;;;;2082051;28;20187;-51
2022/05/31 04:45:35;;;;;;;8.38;6.43;;;;;;;;;;2081630;28;20179;-50
2022/05/31 04:46:57;;;;;;;8.63;6.38;;;;;;;;;;2076265;28;20587;-53
2022/05/31 04:48:11;;;;;;;7.85;7.15;;;;;;;;;;2074901;28;20172;-52
2022/05/31 04:49:11;;;;;;;7.72;6.97;;;;;;;;;;2081384;28;20176;-52
2022/05/31 04:50:12;;;;;;;8.32;7.53;;;;;;;;;;2081017;28;20180;-53
2022/05/31 04:51:14;;;;;;;7.18;6.57;;;;;;;;;;2089490;28;20616;-55
2022/05/31 04:52:24;;;;;;;8.23;7.43;;;;;;;;;;2081002;28;20179;-55
2022/05/31 04:53:28;;;;;;;8.18;6.68;;;;;;;;;;2073367;28;20180;-50
2022/05/31 04:54:49;;;;;;;7.43;6.93;;;;;;;;;;2074738;28;20219;-51
2022/05/31 04:56:03;;;;;;;7.50;6.85;;;;;;;;;;2081171;28;20157;-53
2022/05/31 04:57:04;;;;;;;8.45;7.68;;;;;;;;;;2073433;28;20196;-53
2022/05/31 04:58:05;;;;;;;9.45;7.45;;;;;;;;;;2073028;28;20177;-52
2022/05/31 04:59:05;;;;;;;8.38;7.68;;;;;;;;;;2073006;28;20180;-53
2022/05/31 05:00:06;;;;;;;8.77;8.00;;;;;;;;;;2073109;28;20211;-55
2022/05/31 05:01:12;;;;;;;7.57;6.90;;;;;;;;;;2080832;28;20573;-53
2022/05/31 05:02:15;;;;;;;7.15;6.65;;;;;;;;;;2073386;28;20165;-52
2022/05/31 05:03:33;;;;;;;8.07;7.18;;;;;;;;;;2081074;28;20183;-49
2022/05/31 05:04:33;;;;;;;8.15;7.35;;;;;;;;;;2080416;28;20160;-51
2022/05/31 05:05:34;;;;;;;7.72;7.13;;;;;;;;;;2081636;28;20187;-50
2022/05/31 05:06:42;;;;;;;7.47;6.78;;;;;;;;;;2081620;28;20156;-56
2022/05/31 05:07:43;;;;;;;7.60;7.00;;;;;;;;;;2080947;28;20597;-56
2022/05/31 05:08:44;;;;;;;7.53;6.85;;;;;;;;;;2072693;28;20177;-52
2022/05/31 05:09:44;;;;;;;8.15;7.35;;;;;;;;;;2073185;28;20581;-55
2022/05/31 05:11:05;;;;;;;8.15;7.47;;;;;;;;;;2081457;28;20224;-54
2022/05/31 05:12:17;;;;;;;8.05;7.25;;;;;;;;;;2079729;28;20616;-54
2022/05/31 05:13:21;;;;;;;8.27;7.53;;;;;;;;;;2071664;28;20192;-55
2022/05/31 05:14:45;;;;;;;7.00;6.30;;;;;;;;;;2055529;28;20190;-54
2022/05/31 05:15:51;;;;;;;7.63;7.03;;;;;;;;;;2078734;28;20184;-53
2022/05/31 05:16:53;;;;;;;7.15;6.47;;;;;;;;;;2081572;28;20167;-54
2022/05/31 05:17:53;;;;;;;6.88;6.28;;;;;;;;;;2080943;28;20211;-52
2022/05/31 05:18:54;;;;;;;7.13;6.63;;;;;;;;;;2070597;28;20165;-50
2022/05/31 05:19:54;;;;;;;7.35;5.75;;;;;;;;;;2073071;28;20196;-53
2022/05/31 05:20:55;;;;;;;7.32;6.70;;;;;;;;;;2073018;28;20181;-55
2022/05/31 05:21:56;;;;;;;6.40;5.90;;;;;;;;;;2072523;28;20201;-53
2022/05/31 05:22:57;;;;;;;7.30;6.60;;;;;;;;;;2072946;28;20677;-51
2022/05/31 05:23:57;;;;;;;7.30;6.63;;;;;;;;;;2064234;28;20169;-55
2022/05/31 05:25:13;;;;;;;6.40;5.90;;;;;;;;;;2066735;28;20178;-50
2022/05/31 05:26:35;;;;;;;7.40;6.70;;;;;;;;;;2066976;28;20154;-52
2022/05/31 05:31:28;;;;;;;6.68;6.05;;;;;;;;;;2076185;28;20187;-53
2022/05/31 05:32:48;;;;;;;7.00;6.43;;;;;;;;;;2048286;29;20193;-52
2022/05/31 05:33:55;;;;;;;6.43;5.93;;;;;;;;;;2092544;28;20610;-56
2022/05/31 05:35:24;;;;;;;6.68;6.10;;;;;;;;;;2070100;28;20653;-55
2022/05/31 05:36:33;;;;;;;6.50;5.80;;;;;;;;;;2078408;28;20748;-55
2022/05/31 05:37:34;;;;;;;7.03;6.30;;;;;;;;;;2072421;28;20189;-53
2022/05/31 05:38:35;;;;;;;7.28;6.28;;;;;;;;;;2080644;28;20176;-56
2022/05/31 05:39:54;;;;;;;6.22;5.82;;;;;;;;;;2073550;28;20152;-56
2022/05/31 05:40:57;;;;;;;7.32;6.78;;;;;;;;;;2080670;28;20816;-54
2022/05/31 05:42:06;;;;;;;6.72;5.93;;;;;;;;;;2071112;28;20193;-56
2022/05/31 05:43:22;;;;;;;7.47;5.78;;;;;;;;;;2075991;28;20600;-55
2022/05/31 05:44:29;;;;;;;6.30;5.80;;;;;;;;;;2079873;28;20182;-55
2022/05/31 05:45:37;;;;;;;6.28;5.78;;;;;;;;;;2073341;28;20223;-51
2022/05/31 05:46:38;;;;;;;8.27;7.45;;;;;;;;;;2072346;28;20275;-56
2022/05/31 05:47:38;;;;;;;7.13;6.53;;;;;;;;;;2072715;28;20260;-56
2022/05/31 05:48:39;;;;;;;7.13;6.40;;;;;;;;;;2080778;28;20241;-49
2022/05/31 05:49:41;;;;;;;6.72;6.13;;;;;;;;;;2072623;28;20195;-54
2022/05/31 05:51:01;;;;;;;6.40;5.90;;;;;;;;;;2080002;28;20176;-51
2022/05/31 05:52:31;;;;;;;6.68;5.85;;;;;;;;;;2056276;28;20198;-52
2022/05/31 05:53:51;;;;;;;5.72;5.32;;;;;;;;;;2059634;28;20170;-55
2022/05/31 05:55:20;;;;;;;6.10;5.50;;;;;;;;;;2057217;28;20183;-51
2022/05/31 05:56:39;;;;;;;7.18;6.57;;;;;;;;;;2066979;28;20597;-52
2022/05/31 05:58:03;;;;;;;5.50;5.00;;;;;;;;;;2076926;28;20188;-52
2022/05/31 05:59:23;;;;;;;6.30;5.53;;;;;;;;;;2076210;28;20184;-54
2022/05/31 06:00:59;;;;;;;6.18;5.65;;;;;;;;;;2047906;28;20175;-55
2022/05/31 06:02:17;;;;;;;6.03;5.30;;;;;;;;;;2040059;29;20252;-53
2022/05/31 06:03:43;;;;;;;6.15;5.65;;;;;;;;;;2067843;28;20203;-54
2022/05/31 06:04:57;;;;;;;5.20;4.82;;;;;;;;;;2080625;28;20169;-51
2022/05/31 06:05:59;;;;;;;5.13;4.78;;;;;;;;;;2080518;28;20722;-51
2022/05/31 06:08:23;;;;;;;6.03;5.43;;;;;;;;;;2076541;28;20250;-58
2022/05/31 06:09:24;;;;;;;6.60;6.07;;;;;;;;;;2080082;28;20176;-59
2022/05/31 06:10:50;;;;;;;6.47;5.97;;;;;;;;;;2080766;28;20176;-56
2022/05/31 06:11:58;;;;;;;6.22;5.15;;;;;;;;;;2068596;28;20268;-55
2022/05/31 06:13:04;;;;;;;6.70;5.60;;;;;;;;;;2075994;28;20278;-57
2022/05/31 06:14:11;;;;;;;5.80;5.30;;;;;;;;;;2071758;28;20169;-55
2022/05/31 06:15:16;;;;;;;5.93;5.43;;;;;;;;;;2073912;28;20200;-57
2022/05/31 06:16:19;;;;;;;5.95;5.45;;;;;;;;;;2080966;28;20168;-55
2022/05/31 06:17:21;;;;;;;6.45;5.80;;;;;;;;;;2080774;28;20192;-56
2022/05/31 06:18:24;;;;;;;5.60;5.10;;;;;;;;;;2081004;28;20491;-56
2022/05/31 06:19:31;;;;;;;7.22;5.55;;;;;;;;;;2072966;28;20169;-55
2022/05/31 06:20:32;;;;;;;6.00;5.60;;;;;;;;;;2074824;28;20189;-63
2022/05/31 06:21:33;;;;;;;5.95;5.35;;;;;;;;;;2076559;28;20197;-64
2022/05/31 06:22:44;;;;;;;6.40;5.90;;;;;;;;;;2064649;28;20252;-61
2022/05/31 06:23:50;;;;;;;6.47;5.20;;;;;;;;;;2069375;28;20177;-64
2022/05/31 06:24:50;;;;;;;6.93;5.05;;;;;;;;;;2081074;28;20179;-66
2022/05/31 06:26:18;;;;;;;5.88;4.88;;;;;;;;;;2083924;28;20187;-64
2022/05/31 06:27:32;;;;;;;5.60;5.10;;;;;;;;;;2088376;28;20584;-64
2022/05/31 06:28:32;;;;;;;5.50;5.00;;;;;;;;;;2080168;28;20633;-63
2022/05/31 06:29:33;;;;;;;5.63;5.28;;;;;;;;;;2088751;28;20247;-64
2022/05/31 06:30:33;;;;;;;6.22;5.72;;;;;;;;;;2089142;28;20179;-65
2022/05/31 06:31:33;;;;;;;5.88;5.35;;;;;;;;;;2080956;28;20617;-64
2022/05/31 06:32:36;;;;;;;6.85;5.40;;;;;;;;;;2089160;28;20171;-62
2022/05/31 06:33:36;;;;;;;5.60;5.10;;;;;;;;;;2088907;28;20582;-57
2022/05/31 06:34:39;;;;;;;5.18;4.78;;;;;;;;;;2088169;28;20176;-52
2022/05/31 06:35:58;;;;;;;5.80;5.25;;;;;;;;;;2083075;28;20214;-57
2022/05/31 06:37:02;;;;;;;5.80;5.32;;;;;;;;;;2080829;28;20681;-55
2022/05/31 06:38:03;;;;;;;7.03;5.15;;;;;;;;;;2085996;28;20242;-53
2022/05/31 06:39:04;;;;;;;5.25;4.85;;;;;;;;;;2072525;28;20545;-54
2022/05/31 06:40:05;;;;;;;7.43;4.65;;;;;;;;;;2082462;28;20165;-58
2022/05/31 06:41:21;;;;;;;5.50;5.10;;;;;;;;;;2066402;28;20196;-57
2022/05/31 06:42:50;;;;;;;5.70;5.20;;;;;;;;;;2074497;28;20173;-60
2022/05/31 06:44:09;;;;;;;5.63;5.05;;;;;;;;;;2082169;28;20176;-57
2022/05/31 06:45:38;;;;;;;4.93;4.53;;;;;;;;;;2072495;28;20181;-54
2022/05/31 06:46:56;;;;;;;4.65;4.35;;;;;;;;;;2060842;28;20158;-55